Canton, Illinois
Current Conditions -  °F | °C
As of 3:08 PM on Saturday 20 Dec 2014 (Local Time) from KPIA Reporting Station
Overcast Overcast  
Wind Chill: 32°   Ceiling: 3800
Heat Index: 37°   Visibility: 8mi
Dew Point: 27°   Wind: 7mph
Humidity: 67%   Direction: 150°SSE
Pressure: 30.22"   Gusts: NA
Location:  40.56°N, 90.03°W
Report Text: KPIA 202108Z 15006KT 8SM FEW018 OVC038 03/M03 A3022 RMK AO2 T00281028
Loading
Personal Weather Stations






























Interactive Weather Map New forecast layout! Learn more

10-Day Weather Forecast

Advertisements
Track Severe Weather on mobile